sensor_id;sensor_type;location;lat;lon;timestamp;pressure;altitude;pressure_sealevel;temperature;humidity
79540;BME280;76655;52.122;5.406;2024-03-02T00:00:10;99893.59;;;21.08;52.28
79540;BME280;76655;52.122;5.406;2024-03-02T00:02:41;99879.41;;;21.05;52.80
79540;BME280;76655;52.122;5.406;2024-03-02T00:05:07;99892.56;;;21.01;52.63
79540;BME280;76655;52.122;5.406;2024-03-02T00:07:36;99886.41;;;20.99;52.67
79540;BME280;76655;52.122;5.406;2024-03-02T00:10:08;99892.38;;;20.95;52.63
79540;BME280;76655;52.122;5.406;2024-03-02T00:12:35;99889.97;;;20.92;52.54
79540;BME280;76655;52.122;5.406;2024-03-02T00:15:05;99901.91;;;20.91;52.46
79540;BME280;76655;52.122;5.406;2024-03-02T00:17:33;99899.72;;;20.86;53.03
79540;BME280;76655;52.122;5.406;2024-03-02T00:20:00;99912.84;;;20.82;53.01
79540;BME280;76655;52.122;5.406;2024-03-02T00:22:26;99915.91;;;20.79;52.66
79540;BME280;76655;52.122;5.406;2024-03-02T00:24:53;99931.59;;;20.77;52.71
79540;BME280;76655;52.122;5.406;2024-03-02T00:27:20;99936.38;;;20.75;52.67
79540;BME280;76655;52.122;5.406;2024-03-02T00:29:47;99943.19;;;20.71;52.58
79540;BME280;76655;52.122;5.406;2024-03-02T00:32:16;99948.78;;;20.70;52.58
79540;BME280;76655;52.122;5.406;2024-03-02T00:34:42;99972.84;;;20.66;52.94
79540;BME280;76655;52.122;5.406;2024-03-02T00:37:10;99965.84;;;20.64;52.94
79540;BME280;76655;52.122;5.406;2024-03-02T00:39:38;99975.22;;;20.61;52.83
79540;BME280;76655;52.122;5.406;2024-03-02T00:42:05;99990.91;;;20.59;52.64
79540;BME280;76655;52.122;5.406;2024-03-02T00:44:33;100003.88;;;20.57;53.10
79540;BME280;76655;52.122;5.406;2024-03-02T00:47:02;100001.28;;;20.56;53.03
79540;BME280;76655;52.122;5.406;2024-03-02T00:49:29;99993.28;;;20.54;52.81
79540;BME280;76655;52.122;5.406;2024-03-02T00:51:55;99997.00;;;20.53;52.80
79540;BME280;76655;52.122;5.406;2024-03-02T00:54:25;99996.31;;;20.51;52.40
79540;BME280;76655;52.122;5.406;2024-03-02T00:56:52;99995.75;;;20.48;52.82
79540;BME280;76655;52.122;5.406;2024-03-02T00:59:22;100014.19;;;20.46;52.93
79540;BME280;76655;52.122;5.406;2024-03-02T01:01:49;100004.47;;;20.43;53.05
79540;BME280;76655;52.122;5.406;2024-03-02T01:04:16;100016.53;;;20.41;52.81
79540;BME280;76655;52.122;5.406;2024-03-02T01:06:42;100009.53;;;20.38;52.56
79540;BME280;76655;52.122;5.406;2024-03-02T01:09:09;100008.84;;;20.36;52.91
79540;BME280;76655;52.122;5.406;2024-03-02T01:11:36;100001.81;;;20.33;52.87
79540;BME280;76655;52.122;5.406;2024-03-02T01:14:02;100007.44;;;20.32;52.66
79540;BME280;76655;52.122;5.406;2024-03-02T01:16:28;100010.50;;;20.29;52.65
79540;BME280;76655;52.122;5.406;2024-03-02T01:18:55;99997.97;;;20.26;52.94
79540;BME280;76655;52.122;5.406;2024-03-02T01:21:22;99996.44;;;20.24;52.76
79540;BME280;76655;52.122;5.406;2024-03-02T01:23:48;100000.16;;;20.23;52.56
79540;BME280;76655;52.122;5.406;2024-03-02T01:26:15;100014.00;;;20.21;52.74
79540;BME280;76655;52.122;5.406;2024-03-02T01:28:42;100011.41;;;20.20;52.84
79540;BME280;76655;52.122;5.406;2024-03-02T01:31:08;100016.19;;;20.18;52.52
79540;BME280;76655;52.122;5.406;2024-03-02T01:33:34;100019.06;;;20.16;52.66
79540;BME280;76655;52.122;5.406;2024-03-02T01:36:01;100015.63;;;20.14;52.55
79540;BME280;76655;52.122;5.406;2024-03-02T01:38:28;100007.59;;;20.13;52.81
79540;BME280;76655;52.122;5.406;2024-03-02T01:40:55;100007.91;;;20.10;52.73
79540;BME280;76655;52.122;5.406;2024-03-02T01:43:23;100017.09;;;20.09;52.45
79540;BME280;76655;52.122;5.406;2024-03-02T01:45:49;100022.03;;;20.05;52.87
79540;BME280;76655;52.122;5.406;2024-03-02T01:48:16;100022.88;;;20.06;52.61
79540;BME280;76655;52.122;5.406;2024-03-02T01:50:42;100023.19;;;20.03;52.94
79540;BME280;76655;52.122;5.406;2024-03-02T01:53:09;100023.19;;;20.03;52.59
79540;BME280;76655;52.122;5.406;2024-03-02T01:55:36;100029.84;;;20.00;52.96
79540;BME280;76655;52.122;5.406;2024-03-02T01:58:02;100020.94;;;19.98;52.71
79540;BME280;76655;52.122;5.406;2024-03-02T02:00:29;100021.13;;;19.97;52.77
79540;BME280;76655;52.122;5.406;2024-03-02T02:02:56;100026.72;;;19.95;53.04
79540;BME280;76655;52.122;5.406;2024-03-02T02:05:24;100019.72;;;19.93;52.76
79540;BME280;76655;52.122;5.406;2024-03-02T02:07:50;100015.25;;;19.92;52.71
79540;BME280;76655;52.122;5.406;2024-03-02T02:10:17;100021.75;;;19.91;52.87
79540;BME280;76655;52.122;5.406;2024-03-02T02:12:44;100030.06;;;19.89;52.85
79540;BME280;76655;52.122;5.406;2024-03-02T02:15:27;100033.81;;;19.88;52.88
79540;BME280;76655;52.122;5.406;2024-03-02T02:17:57;100032.25;;;19.85;52.90
79540;BME280;76655;52.122;5.406;2024-03-02T02:20:25;100030.53;;;19.84;52.89
79540;BME280;76655;52.122;5.406;2024-03-02T02:22:56;100023.38;;;19.83;52.83
79540;BME280;76655;52.122;5.406;2024-03-02T02:25:23;100031.72;;;19.82;52.75
79540;BME280;76655;52.122;5.406;2024-03-02T02:27:49;100024.53;;;19.81;52.72
79540;BME280;76655;52.122;5.406;2024-03-02T02:30:21;100025.72;;;19.78;52.90
79540;BME280;76655;52.122;5.406;2024-03-02T02:32:48;100017.66;;;19.77;52.99
79540;BME280;76655;52.122;5.406;2024-03-02T02:35:15;100014.09;;;19.76;52.87
79540;BME280;76655;52.122;5.406;2024-03-02T02:37:42;100024.28;;;19.74;52.86
79540;BME280;76655;52.122;5.406;2024-03-02T02:40:09;100035.38;;;19.73;53.04
79540;BME280;76655;52.122;5.406;2024-03-02T02:42:36;100038.25;;;19.71;52.96
79540;BME280;76655;52.122;5.406;2024-03-02T02:45:02;100033.78;;;19.70;53.00
79540;BME280;76655;52.122;5.406;2024-03-02T02:47:30;100021.19;;;19.69;53.08
79540;BME280;76655;52.122;5.406;2024-03-02T02:49:56;100031.38;;;19.67;53.03
79540;BME280;76655;52.122;5.406;2024-03-02T02:52:23;100039.88;;;19.64;53.15
79540;BME280;76655;52.122;5.406;2024-03-02T02:54:49;100027.25;;;19.63;52.85
79540;BME280;76655;52.122;5.406;2024-03-02T02:57:16;100032.88;;;19.62;52.93
79540;BME280;76655;52.122;5.406;2024-03-02T02:59:42;100050.25;;;19.61;53.09
79540;BME280;76655;52.122;5.406;2024-03-02T03:02:09;100044.09;;;19.59;53.22
79540;BME280;76655;52.122;5.406;2024-03-02T03:04:35;100042.38;;;19.58;53.07
79540;BME280;76655;52.122;5.406;2024-03-02T03:07:02;100040.66;;;19.57;53.08
79540;BME280;76655;52.122;5.406;2024-03-02T03:09:28;100020.00;;;19.54;52.83
79540;BME280;76655;52.122;5.406;2024-03-02T03:11:55;100029.19;;;19.53;53.05
79540;BME280;76655;52.122;5.406;2024-03-02T03:14:21;100031.91;;;19.53;53.17
79540;BME280;76655;52.122;5.406;2024-03-02T03:16:47;100031.22;;;19.51;53.17
79540;BME280;76655;52.122;5.406;2024-03-02T03:19:15;100030.34;;;19.51;53.39
79540;BME280;76655;52.122;5.406;2024-03-02T03:21:43;100034.25;;;19.48;53.24
79540;BME280;76655;52.122;5.406;2024-03-02T03:24:10;100034.25;;;19.48;53.25
79540;BME280;76655;52.122;5.406;2024-03-02T03:26:36;100045.31;;;19.47;53.16
79540;BME280;76655;52.122;5.406;2024-03-02T03:29:03;100041.72;;;19.46;53.04
79540;BME280;76655;52.122;5.406;2024-03-02T03:31:29;100044.63;;;19.45;53.23
79540;BME280;76655;52.122;5.406;2024-03-02T03:33:56;100047.47;;;19.43;53.49
79540;BME280;76655;52.122;5.406;2024-03-02T03:36:22;100050.34;;;19.42;53.09
79540;BME280;76655;52.122;5.406;2024-03-02T03:38:49;100044.06;;;19.41;53.29
79540;BME280;76655;52.122;5.406;2024-03-02T03:41:15;100056.94;;;19.39;53.26
79540;BME280;76655;52.122;5.406;2024-03-02T03:43:42;100059.66;;;19.39;53.33
79540;BME280;76655;52.122;5.406;2024-03-02T03:46:08;100057.09;;;19.37;53.41
79540;BME280;76655;52.122;5.406;2024-03-02T03:48:35;100054.53;;;19.36;53.28
79540;BME280;76655;52.122;5.406;2024-03-02T03:51:01;100062.84;;;19.34;53.32
79540;BME280;76655;52.122;5.406;2024-03-02T03:53:28;100063.88;;;19.33;53.29
79540;BME280;76655;52.122;5.406;2024-03-02T03:55:54;100065.72;;;19.33;52.99
79540;BME280;76655;52.122;5.406;2024-03-02T03:58:21;100058.72;;;19.30;53.47
79540;BME280;76655;52.122;5.406;2024-03-02T04:00:48;100052.41;;;19.30;52.95
79540;BME280;76655;52.122;5.406;2024-03-02T04:03:15;100055.28;;;19.28;53.35
79540;BME280;76655;52.122;5.406;2024-03-02T04:05:41;100054.41;;;19.28;53.38
79540;BME280;76655;52.122;5.406;2024-03-02T04:08:08;100060.03;;;19.26;53.33
79540;BME280;76655;52.122;5.406;2024-03-02T04:10:34;100060.16;;;19.25;53.22
79540;BME280;76655;52.122;5.406;2024-03-02T04:13:01;100062.19;;;19.23;52.98
79540;BME280;76655;52.122;5.406;2024-03-02T04:15:27;100066.78;;;19.22;53.29
79540;BME280;76655;52.122;5.406;2024-03-02T04:17:54;100072.38;;;19.21;53.34
79540;BME280;76655;52.122;5.406;2024-03-02T04:20:21;100080.56;;;19.21;53.32
79540;BME280;76655;52.122;5.406;2024-03-02T04:22:48;100078.84;;;19.20;53.03
79540;BME280;76655;52.122;5.406;2024-03-02T04:25:14;100074.53;;;19.17;53.34
79540;BME280;76655;52.122;5.406;2024-03-02T04:27:41;100075.41;;;19.18;53.21
79540;BME280;76655;52.122;5.406;2024-03-02T04:30:07;100072.00;;;19.16;53.16
79540;BME280;76655;52.122;5.406;2024-03-02T04:32:34;100077.44;;;19.16;53.43
79540;BME280;76655;52.122;5.406;2024-03-02T04:35:02;100075.84;;;19.13;53.48
79540;BME280;76655;52.122;5.406;2024-03-02T04:37:31;100073.28;;;19.12;53.47
79540;BME280;76655;52.122;5.406;2024-03-02T04:39:58;100083.31;;;19.11;53.37
79540;BME280;76655;52.122;5.406;2024-03-02T04:42:24;100084.19;;;19.12;53.53
79540;BME280;76655;52.122;5.406;2024-03-02T04:44:51;100087.91;;;19.11;53.63
79540;BME280;76655;52.122;5.406;2024-03-02T04:47:17;100083.47;;;19.10;53.17
79540;BME280;76655;52.122;5.406;2024-03-02T04:49:44;100093.66;;;19.08;53.11
79540;BME280;76655;52.122;5.406;2024-03-02T04:52:10;100098.25;;;19.07;53.35
79540;BME280;76655;52.122;5.406;2024-03-02T04:54:37;100098.41;;;19.06;53.32
79540;BME280;76655;52.122;5.406;2024-03-02T04:57:23;100095.81;;;19.04;53.39
79540;BME280;76655;52.122;5.406;2024-03-02T04:59:50;100105.88;;;19.04;53.49
79540;BME280;76655;52.122;5.406;2024-03-02T05:02:16;100116.75;;;19.04;53.41
79540;BME280;76655;52.122;5.406;2024-03-02T05:04:42;100103.31;;;19.02;53.46
79540;BME280;76655;52.122;5.406;2024-03-02T05:07:09;100105.16;;;19.02;53.51
79540;BME280;76655;52.122;5.406;2024-03-02T05:09:36;100109.75;;;19.01;53.51
79540;BME280;76655;52.122;5.406;2024-03-02T05:12:02;100114.34;;;19.01;53.41
79540;BME280;76655;52.122;5.406;2024-03-02T05:14:36;100109.88;;;19.00;53.38
79540;BME280;76655;52.122;5.406;2024-03-02T05:17:03;100125.38;;;18.99;53.42
79540;BME280;76655;52.122;5.406;2024-03-02T05:19:29;100115.50;;;18.98;53.46
79540;BME280;76655;52.122;5.406;2024-03-02T05:21:59;100123.97;;;18.95;53.63
79540;BME280;76655;52.122;5.406;2024-03-02T05:24:25;100117.50;;;18.96;53.29
79540;BME280;76655;52.122;5.406;2024-03-02T05:26:54;100120.53;;;18.93;53.86
79540;BME280;76655;52.122;5.406;2024-03-02T05:29:21;100120.53;;;18.93;53.44
79540;BME280;76655;52.122;5.406;2024-03-02T05:31:48;100116.06;;;18.92;53.72
79540;BME280;76655;52.122;5.406;2024-03-02T05:34:14;100116.22;;;18.91;53.51
79540;BME280;76655;52.122;5.406;2024-03-02T05:36:41;100114.50;;;18.89;53.49
79540;BME280;76655;52.122;5.406;2024-03-02T05:39:08;100120.13;;;18.88;53.71
79540;BME280;76655;52.122;5.406;2024-03-02T05:41:35;100117.41;;;18.88;53.46
79540;BME280;76655;52.122;5.406;2024-03-02T05:44:01;100113.09;;;18.85;53.29
79540;BME280;76655;52.122;5.406;2024-03-02T05:46:28;100111.38;;;18.84;53.63
79540;BME280;76655;52.122;5.406;2024-03-02T05:48:54;100116.84;;;18.84;53.46
79540;BME280;76655;52.122;5.406;2024-03-02T05:51:21;100119.69;;;18.83;53.57
79540;BME280;76655;52.122;5.406;2024-03-02T05:53:47;100119.81;;;18.81;53.28
79540;BME280;76655;52.122;5.406;2024-03-02T05:56:14;100122.53;;;18.81;53.48
79540;BME280;76655;52.122;5.406;2024-03-02T05:58:40;100122.72;;;18.80;53.44
79540;BME280;76655;52.122;5.406;2024-03-02T06:01:33;100122.84;;;18.78;53.41
79540;BME280;76655;52.122;5.406;2024-03-02T06:04:00;100124.69;;;18.78;53.33
79540;BME280;76655;52.122;5.406;2024-03-02T06:06:27;100140.22;;;18.77;53.44
79540;BME280;76655;52.122;5.406;2024-03-02T06:08:53;100131.19;;;18.77;53.44
79540;BME280;76655;52.122;5.406;2024-03-02T06:11:20;100136.75;;;18.75;53.10
79540;BME280;76655;52.122;5.406;2024-03-02T06:13:46;100143.19;;;18.74;53.47
79540;BME280;76655;52.122;5.406;2024-03-02T06:16:13;100149.69;;;18.73;53.06
79540;BME280;76655;52.122;5.406;2024-03-02T06:18:40;100145.22;;;18.72;53.51
79540;BME280;76655;52.122;5.406;2024-03-02T06:21:06;100149.81;;;18.72;53.47
79540;BME280;76655;52.122;5.406;2024-03-02T06:23:33;100158.97;;;18.71;53.52
79540;BME280;76655;52.122;5.406;2024-03-02T06:25:59;100155.41;;;18.70;53.31
79540;BME280;76655;52.122;5.406;2024-03-02T06:28:26;100161.00;;;18.69;53.31
79540;BME280;76655;52.122;5.406;2024-03-02T06:30:52;100166.44;;;18.69;53.43
79540;BME280;76655;52.122;5.406;2024-03-02T06:33:19;100166.44;;;18.69;53.40
79540;BME280;76655;52.122;5.406;2024-03-02T06:35:45;100171.03;;;18.68;53.65
79540;BME280;76655;52.122;5.406;2024-03-02T06:38:12;100169.28;;;18.67;53.56
79540;BME280;76655;52.122;5.406;2024-03-02T06:40:38;100174.72;;;18.67;53.57
79540;BME280;76655;52.122;5.406;2024-03-02T06:43:05;100178.50;;;18.66;53.38
79540;BME280;76655;52.122;5.406;2024-03-02T06:45:32;100176.75;;;18.65;53.57
79540;BME280;76655;52.122;5.406;2024-03-02T06:48:00;100187.66;;;18.65;53.48
79540;BME280;76655;52.122;5.406;2024-03-02T06:50:27;100185.91;;;18.64;53.50
79540;BME280;76655;52.122;5.406;2024-03-02T06:52:53;100182.50;;;18.62;53.31
79540;BME280;76655;52.122;5.406;2024-03-02T06:55:20;100180.63;;;18.63;53.47
79540;BME280;76655;52.122;5.406;2024-03-02T06:57:47;100169.75;;;18.63;53.63
79540;BME280;76655;52.122;5.406;2024-03-02T07:00:14;100163.16;;;18.65;52.12
79540;BME280;76655;52.122;5.406;2024-03-02T07:02:40;100183.94;;;18.66;51.52
79540;BME280;76655;52.122;5.406;2024-03-02T07:05:07;100169.59;;;18.64;51.68
79540;BME280;76655;52.122;5.406;2024-03-02T07:07:35;100173.34;;;18.63;51.82
79540;BME280;76655;52.122;5.406;2024-03-02T07:10:01;100181.63;;;18.62;51.97
79540;BME280;76655;52.122;5.406;2024-03-02T07:12:28;100179.03;;;18.60;51.88
79540;BME280;76655;52.122;5.406;2024-03-02T07:14:54;100180.94;;;18.60;52.28
79540;BME280;76655;52.122;5.406;2024-03-02T07:17:31;100181.06;;;18.58;52.25
79540;BME280;76655;52.122;5.406;2024-03-02T07:19:58;100183.78;;;18.58;52.33
79540;BME280;76655;52.122;5.406;2024-03-02T07:22:24;100184.66;;;18.59;52.51
79540;BME280;76655;52.122;5.406;2024-03-02T07:24:51;100182.06;;;18.57;52.56
79540;BME280;76655;52.122;5.406;2024-03-02T07:27:17;100187.50;;;18.57;52.67
79540;BME280;76655;52.122;5.406;2024-03-02T07:29:44;100188.53;;;18.56;52.24
79540;BME280;76655;52.122;5.406;2024-03-02T07:32:10;100186.63;;;18.57;52.43
79540;BME280;76655;52.122;5.406;2024-03-02T07:34:37;100194.81;;;18.57;52.68
